Time;durP1;ratioP1;P1;durP2;ratioP2;P2;SDS_P1;SDS_P2;PMS_P1;PMS_P2;Temp;Humidity;BMP_temperature;BMP_pressure;BME280_temperature;BME280_humidity;BME280_pressure;Samples;Min_cycle;Max_cycle;Signal;HPM_P1;HPM_P2
2021/12/20 00:00:49;;;;;;;0.83;0.80;;;;;;;1.53;100.00;101575.97;5071269;28;20178;-77
2021/12/20 00:03:15;;;;;;;3.87;0.93;;;;;;;1.49;100.00;101564.84;5071036;28;20211;-76
2021/12/20 00:05:41;;;;;;;6.20;1.50;;;;;;;1.48;100.00;101574.78;5070936;28;20174;-77
2021/12/20 00:08:06;;;;;;;12.93;2.33;;;;;;;1.49;100.00;101578.31;5070907;28;20696;-76
2021/12/20 00:10:32;;;;;;;5.53;1.40;;;;;;;1.49;100.00;101589.06;5071044;28;20287;-76
2021/12/20 00:12:57;;;;;;;5.13;2.23;;;;;;;1.40;100.00;101577.75;5071367;28;20174;-76
2021/12/20 00:15:23;;;;;;;3.30;1.77;;;;;;;1.35;100.00;101584.88;5070807;28;20644;-76
2021/12/20 00:17:48;;;;;;;7.17;2.27;;;;;;;1.21;100.00;101584.16;5070861;28;20635;-76
2021/12/20 00:20:14;;;;;;;1.10;0.73;;;;;;;1.15;100.00;101583.16;5071150;28;20174;-76
2021/12/20 00:22:40;;;;;;;3.83;1.70;;;;;;;1.10;100.00;101582.19;5070828;28;20171;-76
2021/12/20 00:25:06;;;;;;;9.87;1.17;;;;;;;1.01;100.00;101578.13;5070697;28;20650;-75
2021/12/20 00:27:32;;;;;;;4.43;1.13;;;;;;;0.91;100.00;101575.13;5069431;28;20206;-77
2021/12/20 00:29:58;;;;;;;9.23;5.60;;;;;;;0.87;100.00;101578.25;5070590;28;20500;-75
2021/12/20 00:32:24;;;;;;;6.63;1.83;;;;;;;0.85;100.00;101580.31;5070619;28;20181;-76
2021/12/20 00:34:49;;;;;;;1.00;1.00;;;;;;;0.84;100.00;101583.22;5070500;28;20202;-76
2021/12/20 00:42:45;;;;;;;2.40;1.33;;;;;;;0.79;100.00;101589.28;5070146;28;20830;-76
2021/12/20 00:45:12;;;;;;;7.23;1.00;;;;;;;0.79;100.00;101589.28;5068662;28;20435;-75
2021/12/20 00:47:39;;;;;;;5.10;1.47;;;;;;;0.72;100.00;101582.28;5070309;28;20416;-76
2021/12/20 00:50:07;;;;;;;9.70;2.30;;;;;;;0.74;100.00;101589.13;5070320;28;20437;-76
2021/12/20 00:52:32;;;;;;;0.30;0.30;;;;;;;0.71;100.00;101583.31;5070408;28;20421;-76
2021/12/20 00:54:57;;;;;;;6.43;1.97;;;;;;;0.70;100.00;101590.56;5070223;28;20467;-76
2021/12/20 00:57:23;;;;;;;3.93;1.27;;;;;;;0.70;100.00;101597.81;5071121;28;20646;-76
2021/12/20 00:59:48;;;;;;;0.40;0.40;;;;;;;0.70;100.00;101597.81;5074504;28;20163;-77
2021/12/20 01:02:14;;;;;;;16.73;2.90;;;;;;;0.70;100.00;101603.19;5074528;28;20170;-77
2021/12/20 01:04:39;;;;;;;8.20;1.53;;;;;;;0.69;100.00;101605.06;5074586;28;20173;-77
2021/12/20 01:07:05;;;;;;;3.10;1.93;;;;;;;0.79;100.00;101609.97;5074695;28;20622;-76
2021/12/20 01:09:30;;;;;;;1.90;1.03;;;;;;;0.78;100.00;101619.91;5074282;28;20182;-76
2021/12/20 01:12:02;;;;;;;5.27;1.50;;;;;;;0.74;100.00;101625.94;5074315;28;20174;-76
2021/12/20 01:14:31;;;;;;;5.80;0.93;;;;;;;0.68;100.00;101616.03;5074167;28;20260;-77
2021/12/20 01:17:02;;;;;;;11.17;2.70;;;;;;;0.58;100.00;101619.22;5074107;28;20417;-76
2021/12/20 01:19:27;;;;;;;2.70;1.67;;;;;;;0.45;100.00;101613.91;5074218;28;20618;-76
2021/12/20 01:21:53;;;;;;;1.53;1.53;;;;;;;0.34;100.00;101615.41;5074103;28;20428;-76
2021/12/20 01:24:18;;;;;;;2.50;1.60;;;;;;;0.23;100.00;101611.53;5074024;28;20603;-76
2021/12/20 01:26:44;;;;;;;0.70;0.50;;;;;;;0.10;100.00;101616.97;5073820;28;20171;-75
2021/12/20 01:29:09;;;;;;;6.57;1.10;;;;;;;0.04;100.00;101611.63;5074039;28;20536;-76
2021/12/20 01:31:34;;;;;;;1.20;1.10;;;;;;;0.02;100.00;101609.16;5073898;28;20634;-76
2021/12/20 01:34:00;;;;;;;3.33;3.13;;;;;;;0.04;100.00;101601.72;5074068;28;20547;-76
2021/12/20 01:36:25;;;;;;;16.77;2.20;;;;;;;0.09;100.00;101604.56;5074059;28;20189;-76
2021/12/20 01:38:50;;;;;;;8.40;0.93;;;;;;;0.19;100.00;101618.38;5073889;28;20178;-76
2021/12/20 01:41:16;;;;;;;1.07;0.50;;;;;;;0.26;100.00;101626.41;5073634;28;20274;-76
2021/12/20 01:43:41;;;;;;;4.20;1.33;;;;;;;0.23;100.00;101616.91;5073749;28;20217;-76
2021/12/20 01:46:07;;;;;;;4.77;0.30;;;;;;;0.35;100.00;101632.38;5073305;28;20269;-74
2021/12/20 01:48:32;;;;;;;6.33;0.70;;;;;;;0.33;100.00;101624.53;5073562;28;20175;-76
2021/12/20 01:51:32;;;;;;;3.40;1.50;;;;;;;0.31;100.00;101634.66;5073735;28;20171;-76
2021/12/20 01:53:46;;;;;;;9.03;1.23;;;;;;;0.44;100.00;101639.16;5073272;28;20814;-76
2021/12/20 01:56:12;;;;;;;2.23;1.57;;;;;;;0.45;100.00;101646.19;5073507;28;20598;-76
2021/12/20 01:58:37;;;;;;;3.20;1.33;;;;;;;0.38;100.00;101640.81;5073420;28;20170;-76
2021/12/20 02:03:39;;;;;;;0.67;0.67;;;;;;;0.37;100.00;101651.78;5073427;28;20202;-76
2021/12/20 02:06:10;;;;;;;0.83;0.63;;;;;;;0.44;100.00;101652.59;5073188;28;20409;-76
2021/12/20 02:08:36;;;;;;;0.50;0.50;;;;;;;0.40;100.00;101644.13;5073092;28;20944;-77
2021/12/20 02:11:07;;;;;;;5.93;0.80;;;;;;;0.35;100.00;101652.00;5073055;28;20863;-76
2021/12/20 02:13:33;;;;;;;4.17;0.97;;;;;;;0.36;100.00;101642.06;5073048;28;20506;-76
2021/12/20 02:16:00;;;;;;;3.30;1.80;;;;;;;0.39;100.00;101647.03;5072945;28;20416;-76
2021/12/20 02:18:26;;;;;;;3.37;1.17;;;;;;;0.37;100.00;101646.41;5073065;28;20413;-77
2021/12/20 02:20:52;;;;;;;1.87;1.70;;;;;;;0.31;100.00;101645.41;5072947;28;20413;-77
2021/12/20 02:23:17;;;;;;;1.37;1.07;;;;;;;0.18;100.00;101640.91;5073094;28;20424;-77
2021/12/20 02:25:43;;;;;;;0.23;0.23;;;;;;;0.16;100.00;101634.94;5072901;28;20170;-77
2021/12/20 02:28:13;;;;;;;5.77;3.03;;;;;;;0.21;100.00;101635.13;5073170;28;20308;-76
2021/12/20 02:36:51;;;;;;;0.87;0.57;;;;;;;0.24;100.00;101634.69;5073374;28;20190;-76
2021/12/20 02:38:48;;;;;;;3.00;1.47;;;;;;;0.22;100.00;101636.75;5073070;28;20409;-76
2021/12/20 02:41:17;;;;;;;5.93;0.90;;;;;;;0.18;100.00;101626.66;5072871;28;20421;-76
2021/12/20 02:43:52;;;;;;;0.83;0.73;;;;;;;0.13;100.00;101629.16;5072710;28;20482;-76
2021/12/20 02:47:05;;;;;;;1.90;0.47;;;;;;;0.25;100.00;101633.63;5072447;28;20818;-76
2021/12/20 02:49:13;;;;;;;1.70;1.70;;;;;;;0.31;100.00;101628.47;5066770;28;20429;-77
2021/12/20 02:51:39;;;;;;;5.73;1.77;;;;;;;0.24;100.00;101633.84;5072667;28;20445;-78
2021/12/20 02:54:07;;;;;;;1.27;0.87;;;;;;;0.15;100.00;101624.41;5072316;28;20555;-76
2021/12/20 02:56:32;;;;;;;3.50;1.07;;;;;;;0.17;100.00;101633.06;5072111;28;21035;-78
2021/12/20 02:58:58;;;;;;;0.37;0.37;;;;;;;0.21;100.00;101636.97;5072331;28;20423;-77
2021/12/20 03:01:23;;;;;;;23.23;0.67;;;;;;;0.25;100.00;101630.13;5072195;28;20618;-76
2021/12/20 03:03:53;;;;;;;0.03;0.03;;;;;;;0.17;100.00;101625.84;5070891;28;20183;-76
2021/12/20 03:06:36;;;;;;;4.57;1.30;;;;;;;0.24;100.00;101631.16;5072189;28;20247;-77
2021/12/20 03:09:04;;;;;;;0.43;0.43;;;;;;;0.29;100.00;101634.88;5072265;28;20439;-76
2021/12/20 03:11:30;;;;;;;0.73;0.10;;;;;;;0.29;100.00;101626.00;5072410;28;20409;-76
2021/12/20 03:14:07;;;;;;;0.00;0.00;;;;;;;0.17;100.00;101619.63;5071918;28;20943;-76
2021/12/20 03:16:34;;;;;;;0.50;0.50;;;;;;;0.09;100.00;101626.06;5071650;28;20626;-77
2021/12/20 03:19:01;;;;;;;1.00;1.00;;;;;;;0.03;100.00;101621.56;5071908;28;20912;-76
2021/12/20 03:21:26;;;;;;;0.83;0.83;;;;;;;0.10;100.00;101621.50;5071340;28;20421;-76
2021/12/20 03:23:51;;;;;;;0.90;0.23;;;;;;;0.08;100.00;101624.41;5071740;28;20520;-76
2021/12/20 03:26:17;;;;;;;1.23;1.23;;;;;;;-0.01;100.00;101626.50;5071461;28;20657;-75
2021/12/20 03:28:42;;;;;;;4.00;2.10;;;;;;;0.02;100.00;101627.16;5071595;28;20206;-76
2021/12/20 03:31:07;;;;;;;0.10;0.10;;;;;;;-0.06;100.00;101620.97;5071543;28;20248;-76
2021/12/20 03:33:33;;;;;;;1.60;1.60;;;;;;;-0.05;100.00;101627.16;5071535;28;20285;-76
2021/12/20 03:35:58;;;;;;;3.30;0.90;;;;;;;-0.08;100.00;101622.22;5071520;28;20206;-76
2021/12/20 03:38:24;;;;;;;5.67;1.07;;;;;;;-0.13;100.00;101622.84;5071537;28;20177;-77
2021/12/20 03:40:49;;;;;;;0.07;0.07;;;;;;;-0.23;100.00;101617.09;5070111;28;20178;-76
2021/12/20 03:43:17;;;;;;;0.67;0.20;;;;;;;-0.21;100.00;101619.56;5071448;28;20573;-76
2021/12/20 03:45:44;;;;;;;0.87;0.87;;;;;;;-0.31;100.00;101626.19;5070971;28;20181;-76
2021/12/20 03:48:10;;;;;;;0.20;0.20;;;;;;;-0.20;100.00;101626.56;5071302;28;20423;-76
2021/12/20 03:50:35;;;;;;;0.03;0.03;;;;;;;-0.14;100.00;101621.22;5071298;28;20417;-76
2021/12/20 03:53:00;;;;;;;1.90;1.27;;;;;;;-0.09;100.00;101620.56;5071477;28;20174;-75
2021/12/20 03:55:26;;;;;;;9.70;3.20;;;;;;;0.04;100.00;101633.94;5070963;28;20210;-76
2021/12/20 03:57:51;;;;;;;2.60;1.30;;;;;;;0.14;100.00;101636.16;5071164;28;20178;-76
2021/12/20 04:00:17;;;;;;;1.87;0.43;;;;;;;0.10;100.00;101635.78;5071349;28;20178;-76
2021/12/20 04:02:45;;;;;;;0.33;0.33;;;;;;;0.02;100.00;101643.25;5071145;28;20254;-75
2021/12/20 04:05:12;;;;;;;0.00;0.00;;;;;;;-0.07;100.00;101638.09;5070832;28;20646;-76
2021/12/20 04:07:38;;;;;;;1.43;0.37;;;;;;;-0.10;100.00;101637.72;5070998;28;20428;-76
2021/12/20 04:10:04;;;;;;;2.47;2.37;;;;;;;-0.02;100.00;101650.91;5070930;28;20436;-76
2021/12/20 04:12:30;;;;;;;1.27;1.20;;;;;;;-0.03;100.00;101650.06;5071253;28;20193;-76
2021/12/20 04:14:55;;;;;;;1.43;1.37;;;;;;;-0.10;100.00;101645.78;5070531;28;20952;-77
2021/12/20 04:17:20;;;;;;;0.97;0.57;;;;;;;-0.14;100.00;101649.94;5070712;28;20167;-76
2021/12/20 04:19:46;;;;;;;2.67;1.40;;;;;;;-0.08;100.00;101663.31;5070682;28;20174;-76
2021/12/20 04:22:11;;;;;;;0.13;0.13;;;;;;;-0.13;100.00;101657.75;5070751;28;20174;-76
2021/12/20 04:24:36;;;;;;;0.20;0.20;;;;;;;-0.16;100.00;101651.97;5069366;28;20170;-76
2021/12/20 04:27:02;;;;;;;0.23;0.23;;;;;;;-0.33;100.00;101651.59;5070945;28;20174;-76
2021/12/20 04:29:29;;;;;;;1.03;0.87;;;;;;;-0.47;100.00;101648.09;5070733;28;20170;-76
2021/12/20 04:31:54;;;;;;;0.57;0.57;;;;;;;-0.57;100.00;101642.38;5069707;28;20170;-76
2021/12/20 04:34:20;;;;;;;8.63;2.03;;;;;;;-0.53;100.00;101651.63;5070507;28;20528;-76
2021/12/20 04:36:46;;;;;;;0.60;0.47;;;;;;;-0.46;100.00;101651.63;5070571;28;20248;-76
2021/12/20 04:39:15;;;;;;;0.10;0.10;;;;;;;-0.34;100.00;101649.94;5071117;28;20650;-76
2021/12/20 04:41:41;;;;;;;9.97;1.97;;;;;;;-0.33;100.00;101651.59;5080461;28;20174;-77
2021/12/20 04:44:06;;;;;;;5.63;0.73;;;;;;;-0.36;100.00;101649.34;5075933;28;20420;-76
2021/12/20 04:46:31;;;;;;;5.17;0.47;;;;;;;-0.42;100.00;101648.31;5069566;28;20669;-75
2021/12/20 04:48:57;;;;;;;1.07;0.53;;;;;;;-0.50;100.00;101642.34;5070791;28;20186;-75
2021/12/20 04:51:23;;;;;;;4.80;0.60;;;;;;;-0.51;100.00;101644.19;5070562;28;20210;-76
2021/12/20 04:53:48;;;;;;;0.40;0.40;;;;;;;-0.60;100.00;101640.06;5070543;28;20206;-76
2021/12/20 04:56:13;;;;;;;0.47;0.47;;;;;;;-0.64;100.00;101654.94;5070878;28;20216;-75
2021/12/20 04:58:39;;;;;;;0.50;0.50;;;;;;;-0.76;100.00;101652.06;5070537;28;20175;-77
2021/12/20 05:01:05;;;;;;;0.00;0.00;;;;;;;-0.77;100.00;101641.53;5070557;28;20261;-76
2021/12/20 05:03:31;;;;;;;0.87;0.87;;;;;;;-0.72;100.00;101639.06;5070634;28;20178;-76
2021/12/20 05:05:56;;;;;;;0.20;0.10;;;;;;;-0.76;100.00;101637.81;5070241;28;20416;-76
2021/12/20 05:08:22;;;;;;;0.00;0.00;;;;;;;-0.69;100.00;101646.69;5070495;28;20170;-77
2021/12/20 05:10:47;;;;;;;0.93;0.93;;;;;;;-0.58;100.00;101647.91;5070347;28;20557;-76
2021/12/20 05:13:13;;;;;;;0.03;0.03;;;;;;;-0.52;100.00;101652.47;5070411;28;20623;-75
2021/12/20 05:15:40;;;;;;;0.40;0.40;;;;;;;-0.47;100.00;101666.06;5070179;28;20265;-76
2021/12/20 05:18:07;;;;;;;2.17;1.77;;;;;;;-0.50;100.00;101655.75;5070244;28;20818;-77
2021/12/20 05:20:33;;;;;;;1.63;1.03;;;;;;;-0.54;100.00;101650.00;5069055;28;20428;-77
2021/12/20 05:22:59;;;;;;;0.40;0.40;;;;;;;-0.48;100.00;101661.75;5065143;28;20429;-76
2021/12/20 05:25:25;;;;;;;10.93;2.17;;;;;;;-0.52;100.00;101655.16;5069919;28;20185;-76
2021/12/20 05:27:51;;;;;;;1.20;0.73;;;;;;;-0.46;100.00;101662.34;5070016;28;20503;-76
2021/12/20 05:30:17;;;;;;;1.07;0.70;;;;;;;-0.41;100.00;101673.31;5070080;28;20505;-77
2021/12/20 05:32:43;;;;;;;4.83;0.87;;;;;;;-0.43;100.00;101670.00;5070205;28;20190;-76
2021/12/20 05:35:10;;;;;;;1.03;0.30;;;;;;;-0.44;100.00;101673.69;5069586;28;20233;-78
2021/12/20 05:37:36;;;;;;;0.17;0.17;;;;;;;-0.45;100.00;101669.38;5070256;28;20417;-76
2021/12/20 05:40:04;;;;;;;3.27;2.17;;;;;;;-0.41;100.00;101676.81;5070146;28;20409;-76
2021/12/20 05:42:30;;;;;;;0.30;0.30;;;;;;;-0.41;100.00;101673.31;5069921;28;20412;-76
2021/12/20 05:44:55;;;;;;;4.13;1.43;;;;;;;-0.44;100.00;101681.75;5072868;28;21034;-76
2021/12/20 05:47:22;;;;;;;2.73;1.47;;;;;;;-0.52;100.00;101682.81;5073684;28;20178;-77
2021/12/20 05:49:50;;;;;;;1.30;1.20;;;;;;;-0.54;100.00;101692.09;5073964;28;20264;-77
2021/12/20 05:52:16;;;;;;;3.40;0.13;;;;;;;-0.53;100.00;101691.06;5073516;28;20919;-77
2021/12/20 05:54:41;;;;;;;1.03;0.20;;;;;;;-0.60;100.00;101694.56;5073283;28;20510;-77
2021/12/20 05:57:07;;;;;;;0.13;0.13;;;;;;;-0.60;100.00;101691.88;5073209;28;20175;-77
2021/12/20 05:59:33;;;;;;;2.27;2.23;;;;;;;-0.67;100.00;101690.25;5073312;28;20174;-77
2021/12/20 06:01:58;;;;;;;2.73;1.87;;;;;;;-0.65;100.00;101694.38;5073265;28;20178;-77
2021/12/20 06:04:24;;;;;;;7.13;0.90;;;;;;;-0.62;100.00;101693.94;5073329;28;20416;-77
2021/12/20 06:06:49;;;;;;;0.10;0.10;;;;;;;-0.61;100.00;101694.78;5073305;28;20175;-77
2021/12/20 06:09:14;;;;;;;5.50;1.33;;;;;;;-0.70;100.00;101696.84;5073132;28;20213;-77
2021/12/20 06:11:40;;;;;;;6.10;1.07;;;;;;;-0.75;100.00;101707.38;5071846;28;20177;-79
2021/12/20 06:14:05;;;;;;;0.57;0.57;;;;;;;-0.77;100.00;101705.91;5072989;28;20225;-78
2021/12/20 06:16:31;;;;;;;0.47;0.47;;;;;;;-0.84;100.00;101708.63;5072915;28;20205;-78
2021/12/20 06:18:56;;;;;;;0.83;0.50;;;;;;;-0.95;100.00;101701.16;5073037;28;20179;-78
2021/12/20 06:21:23;;;;;;;0.00;0.00;;;;;;;-0.99;100.00;101703.44;5072935;28;20229;-78
2021/12/20 06:23:48;;;;;;;0.30;0.30;;;;;;;-1.02;100.00;101700.31;5071633;28;20185;-77
2021/12/20 06:26:14;;;;;;;0.50;0.50;;;;;;;-1.02;100.00;101698.44;5072655;28;20417;-78
2021/12/20 06:28:39;;;;;;;0.87;0.87;;;;;;;-1.03;100.00;101701.34;5072731;28;20175;-78
2021/12/20 06:31:05;;;;;;;0.10;0.10;;;;;;;-1.01;100.00;101708.19;5070478;28;20175;-78
2021/12/20 06:33:30;;;;;;;0.70;0.70;;;;;;;-1.00;100.00;101714.38;5072578;28;20182;-78
2021/12/20 06:35:55;;;;;;;0.97;0.97;;;;;;;-1.00;100.00;101717.06;5072510;28;20185;-78
2021/12/20 06:38:22;;;;;;;0.10;0.10;;;;;;;-0.97;100.00;101714.78;5072498;28;20514;-78
2021/12/20 06:40:50;;;;;;;2.13;1.40;;;;;;;-1.04;100.00;101713.94;5072578;28;20171;-79
2021/12/20 06:43:16;;;;;;;14.63;0.83;;;;;;;-1.04;100.00;101711.25;5071080;28;20418;-79
2021/12/20 06:45:41;;;;;;;6.40;0.50;;;;;;;-1.07;100.00;101708.97;5071020;28;20776;-79
2021/12/20 06:48:07;;;;;;;0.63;0.63;;;;;;;-1.11;100.00;101706.91;5072546;28;20484;-78
2021/12/20 06:50:33;;;;;;;0.33;0.33;;;;;;;-1.11;100.00;101710.41;5072312;28;20166;-78
2021/12/20 06:52:58;;;;;;;0.00;0.00;;;;;;;-1.12;100.00;101699.91;5072498;28;20205;-79
2021/12/20 06:55:24;;;;;;;1.13;1.13;;;;;;;-1.07;100.00;101710.84;5071197;28;20271;-79
2021/12/20 06:57:50;;;;;;;1.53;1.53;;;;;;;-1.03;100.00;101709.38;5072244;28;20170;-79
2021/12/20 07:00:16;;;;;;;3.27;0.80;;;;;;;-1.01;100.00;101704.66;5072222;28;20178;-79
2021/12/20 07:02:42;;;;;;;2.30;1.37;;;;;;;-1.09;100.00;101712.91;5072224;28;20428;-79
2021/12/20 07:05:08;;;;;;;0.93;0.90;;;;;;;-1.18;100.00;101714.94;5072017;28;20432;-79
2021/12/20 07:07:34;;;;;;;1.03;1.03;;;;;;;-1.15;100.00;101711.88;5070597;28;20610;-79
2021/12/20 07:10:00;;;;;;;0.97;0.70;;;;;;;-1.23;100.00;101717.41;5069287;28;20969;-79
2021/12/20 07:12:27;;;;;;;0.70;0.67;;;;;;;-1.23;100.00;101718.22;5071913;28;20428;-79
2021/12/20 07:14:52;;;;;;;0.90;0.83;;;;;;;-1.24;100.00;101721.09;5071813;28;20408;-79
2021/12/20 07:17:19;;;;;;;0.10;0.10;;;;;;;-1.18;100.00;101722.13;5071888;28;20424;-79
2021/12/20 07:19:44;;;;;;;4.60;0.67;;;;;;;-1.08;100.00;101728.78;5070979;28;20272;-79
2021/12/20 07:22:09;;;;;;;0.87;0.60;;;;;;;-1.13;100.00;101728.56;5078738;28;20409;-80
2021/12/20 07:24:35;;;;;;;3.20;0.50;;;;;;;-1.04;100.00;101731.88;5080751;28;20657;-79
2021/12/20 07:27:00;;;;;;;0.07;0.07;;;;;;;-1.11;100.00;101733.72;5071830;28;20714;-78
2021/12/20 07:29:25;;;;;;;0.00;0.00;;;;;;;-1.13;100.00;101739.28;5072661;28;20183;-78
2021/12/20 07:31:51;;;;;;;0.50;0.50;;;;;;;-1.14;100.00;101734.13;5071915;28;20253;-79
2021/12/20 07:34:16;;;;;;;3.50;0.77;;;;;;;-1.11;100.00;101737.22;5071940;28;20557;-80
2021/12/20 07:36:41;;;;;;;1.13;1.13;;;;;;;-1.11;100.00;101742.59;5071853;28;20206;-79
2021/12/20 07:39:07;;;;;;;9.23;0.50;;;;;;;-1.06;100.00;101741.97;5071420;28;20182;-82
2021/12/20 07:41:32;;;;;;;3.50;0.83;;;;;;;-1.07;100.00;101741.16;5070295;28;20189;-82
2021/12/20 07:43:58;;;;;;;1.00;0.63;;;;;;;-1.09;100.00;101745.06;5071586;28;20228;-79
2021/12/20 07:46:23;;;;;;;0.40;0.40;;;;;;;-1.12;100.00;101742.81;5071397;28;20190;-79
2021/12/20 07:48:49;;;;;;;9.87;0.70;;;;;;;-1.04;100.00;101747.97;5071563;28;20265;-79
2021/12/20 07:51:16;;;;;;;0.60;0.47;;;;;;;-1.02;100.00;101757.44;5071444;28;20645;-79
2021/12/20 07:53:42;;;;;;;0.60;0.60;;;;;;;-0.98;100.00;101757.91;5071292;28;20461;-79
2021/12/20 07:56:07;;;;;;;1.50;0.80;;;;;;;-0.90;100.00;101760.38;5071461;28;20447;-79
2021/12/20 07:58:33;;;;;;;4.77;0.90;;;;;;;-0.81;100.00;101764.53;5071539;28;20174;-79
2021/12/20 08:01:01;;;;;;;0.43;0.20;;;;;;;-0.78;100.00;101758.75;5071379;28;20177;-79
2021/12/20 08:03:27;;;;;;;2.93;0.83;;;;;;;-0.75;100.00;101771.75;5071279;28;20262;-79
2021/12/20 08:05:52;;;;;;;2.10;0.50;;;;;;;-0.78;100.00;101766.81;5070767;28;20417;-79
2021/12/20 08:08:18;;;;;;;3.10;0.77;;;;;;;-0.78;100.00;101771.34;5069770;28;20429;-79
2021/12/20 08:10:43;;;;;;;1.30;1.07;;;;;;;-0.86;100.00;101760.81;5069646;28;20252;-80
2021/12/20 08:13:10;;;;;;;2.57;1.00;;;;;;;-0.91;100.00;101759.56;5069744;28;20546;-79
2021/12/20 08:15:36;;;;;;;0.67;0.43;;;;;;;-0.86;100.00;101767.00;5070753;28;20292;-79
2021/12/20 08:18:01;;;;;;;7.53;1.00;;;;;;;-0.93;100.00;101761.63;5070922;28;20524;-79
2021/12/20 08:20:26;;;;;;;0.77;0.67;;;;;;;-0.93;100.00;101763.47;5070909;28;20239;-79
2021/12/20 08:22:52;;;;;;;0.97;0.90;;;;;;;-0.93;100.00;101753.56;5070864;28;20228;-79
2021/12/20 08:25:19;;;;;;;2.07;0.97;;;;;;;-0.90;100.00;101761.19;5070746;28;20549;-79
2021/12/20 08:27:45;;;;;;;4.67;0.50;;;;;;;-0.88;100.00;101768.22;5070843;28;20163;-81
2021/12/20 08:30:12;;;;;;;3.37;1.23;;;;;;;-0.87;100.00;101775.22;5070712;28;20413;-82
2021/12/20 08:32:37;;;;;;;1.97;1.17;;;;;;;-0.90;100.00;101773.78;5069497;28;20443;-76
2021/12/20 08:35:04;;;;;;;4.53;0.63;;;;;;;-0.90;100.00;101777.28;5069114;28;20984;-77
2021/12/20 08:37:29;;;;;;;0.70;0.70;;;;;;;-0.89;100.00;101772.75;5070776;28;20269;-76
2021/12/20 08:39:55;;;;;;;2.40;0.57;;;;;;;-0.92;100.00;101770.50;5070758;28;20520;-78
2021/12/20 08:42:20;;;;;;;0.40;0.40;;;;;;;-0.94;100.00;101780.59;5070670;28;20397;-78
2021/12/20 08:44:46;;;;;;;9.67;0.83;;;;;;;-0.92;100.00;101776.69;5070513;28;20169;-78
2021/12/20 08:47:12;;;;;;;0.10;0.10;;;;;;;-0.85;100.00;101784.75;5070454;28;20254;-78
2021/12/20 08:49:37;;;;;;;0.90;0.90;;;;;;;-0.80;100.00;101787.66;5070525;28;20992;-78
2021/12/20 08:52:03;;;;;;;0.00;0.00;;;;;;;-0.76;100.00;101791.56;5071158;28;20174;-78
2021/12/20 08:54:29;;;;;;;0.20;0.20;;;;;;;-0.70;100.00;101793.47;5070406;28;20220;-78
2021/12/20 08:56:55;;;;;;;0.20;0.20;;;;;;;-0.62;100.00;101795.94;5056536;28;20175;-78
2021/12/20 08:59:21;;;;;;;0.23;0.23;;;;;;;-0.55;100.00;101795.97;5065004;28;20178;-75
2021/12/20 09:01:46;;;;;;;0.13;0.13;;;;;;;-0.53;100.00;101807.31;5070106;28;20440;-76
2021/12/20 09:04:12;;;;;;;5.63;1.13;;;;;;;-0.50;100.00;101790.78;5070518;28;20175;-79
2021/12/20 09:06:40;;;;;;;0.63;0.63;;;;;;;-0.52;100.00;101806.28;5070044;28;20178;-78
2021/12/20 09:09:12;;;;;;;2.37;1.23;;;;;;;-0.49;100.00;101799.66;5070196;28;20178;-77
2021/12/20 09:11:40;;;;;;;3.70;0.63;;;;;;;-0.44;100.00;101808.75;5070250;28;20413;-78
2021/12/20 09:14:06;;;;;;;0.27;0.27;;;;;;;-0.41;100.00;101820.97;5070169;28;20452;-77
2021/12/20 09:16:34;;;;;;;0.07;0.07;;;;;;;-0.37;100.00;101824.88;5070194;28;20416;-76
2021/12/20 09:19:02;;;;;;;0.20;0.10;;;;;;;-0.26;100.00;101828.81;5071785;28;20535;-77
2021/12/20 09:21:27;;;;;;;0.07;0.07;;;;;;;-0.23;100.00;101831.09;5074421;28;20429;-77
2021/12/20 09:23:55;;;;;;;0.07;0.07;;;;;;;-0.22;100.00;101819.31;5074075;28;20425;-76
2021/12/20 09:26:21;;;;;;;0.83;0.53;;;;;;;-0.17;100.00;101822.19;5073962;28;20179;-77
2021/12/20 09:28:46;;;;;;;0.50;0.50;;;;;;;-0.12;100.00;101825.94;5074071;28;20845;-77
2021/12/20 09:31:12;;;;;;;2.67;1.03;;;;;;;-0.08;100.00;101827.16;5073876;28;20206;-76
2021/12/20 09:33:37;;;;;;;0.27;0.20;;;;;;;-0.03;100.00;101831.91;5073848;28;20662;-77
2021/12/20 09:36:06;;;;;;;0.23;0.23;;;;;;;0.06;100.00;101829.84;5073733;28;20170;-76
2021/12/20 09:38:32;;;;;;;0.50;0.50;;;;;;;0.06;100.00;101830.69;5073892;28;20201;-77
2021/12/20 09:43:37;;;;;;;0.40;0.20;;;;;;;0.14;100.00;101832.31;5074270;28;20173;-77
2021/12/20 09:46:03;;;;;;;0.57;0.57;;;;;;;0.18;100.00;101830.88;5073438;28;20489;-77
2021/12/20 09:48:29;;;;;;;0.07;0.03;;;;;;;0.21;100.00;101835.84;5073456;28;20912;-78
2021/12/20 09:50:57;;;;;;;0.50;0.20;;;;;;;0.26;100.00;101828.78;5073163;28;20170;-77
2021/12/20 09:53:23;;;;;;;0.40;0.23;;;;;;;0.31;100.00;101828.19;5073550;28;20194;-77
2021/12/20 09:55:51;;;;;;;0.77;0.77;;;;;;;0.31;100.00;101825.50;5073596;28;20499;-77
2021/12/20 09:58:18;;;;;;;0.63;0.63;;;;;;;0.39;100.00;101830.63;5073723;28;20178;-77
2021/12/20 10:00:45;;;;;;;0.10;0.10;;;;;;;0.47;100.00;101821.53;5073475;28;20413;-78
2021/12/20 10:03:13;;;;;;;0.53;0.53;;;;;;;0.48;100.00;101829.38;5073384;28;20419;-78
2021/12/20 10:05:39;;;;;;;0.13;0.13;;;;;;;0.55;100.00;101827.47;5073262;28;20528;-78
2021/12/20 10:08:13;;;;;;;0.37;0.33;;;;;;;0.58;100.00;101823.56;5073241;28;20500;-77
2021/12/20 10:11:00;;;;;;;0.17;0.17;;;;;;;0.63;100.00;101831.00;5072004;28;20186;-77
2021/12/20 10:13:34;;;;;;;0.80;0.80;;;;;;;0.69;100.00;101832.81;5073110;28;20405;-77
2021/12/20 10:16:02;;;;;;;1.70;0.20;;;;;;;0.69;100.00;101827.44;5072932;28;20490;-77
2021/12/20 10:18:31;;;;;;;0.30;0.30;;;;;;;0.71;100.00;101826.19;5073082;28;20420;-77
2021/12/20 10:20:59;;;;;;;0.33;0.33;;;;;;;0.74;100.00;101827.66;5072575;28;20789;-77
2021/12/20 10:23:45;;;;;;;0.47;0.40;;;;;;;0.77;100.00;101824.53;5072844;28;20417;-77
2021/12/20 10:26:15;;;;;;;0.10;0.10;;;;;;;0.77;100.00;101825.38;5072588;28;20417;-77
2021/12/20 10:28:42;;;;;;;5.93;1.37;;;;;;;0.80;100.00;101832.19;5072428;28;20421;-77
2021/12/20 10:31:11;;;;;;;6.30;1.10;;;;;;;0.82;100.00;101835.47;5072702;28;20425;-77
2021/12/20 10:33:38;;;;;;;0.40;0.40;;;;;;;0.83;100.00;101832.56;5072520;28;20923;-77
2021/12/20 10:36:08;;;;;;;3.23;1.03;;;;;;;0.86;100.00;101837.53;5072262;28;20431;-77
2021/12/20 10:38:38;;;;;;;0.50;0.40;;;;;;;0.91;100.00;101846.84;5072653;28;20492;-77
2021/12/20 10:41:37;;;;;;;0.60;0.60;;;;;;;0.99;100.00;101849.28;5072625;28;20507;-77
2021/12/20 10:44:14;;;;;;;1.20;0.10;;;;;;;1.02;100.00;101847.00;5028274;28;20486;-77
2021/12/20 10:46:49;;;;;;;0.30;0.30;;;;;;;1.07;100.00;101852.56;5072267;28;20396;-77
2021/12/20 10:49:18;;;;;;;1.50;1.00;;;;;;;1.15;100.00;101843.41;5072365;28;20424;-76
2021/12/20 10:51:47;;;;;;;2.20;1.30;;;;;;;1.19;100.00;101841.97;5072314;28;20444;-76
2021/12/20 10:54:17;;;;;;;0.90;0.73;;;;;;;1.26;100.00;101837.34;5072178;28;20452;-77
2021/12/20 10:56:50;;;;;;;1.20;1.07;;;;;;;1.34;100.00;101849.75;5071976;28;20916;-77
2021/12/20 10:59:15;;;;;;;0.73;0.73;;;;;;;1.37;100.00;101843.94;5070807;28;20453;-77
2021/12/20 11:04:41;;;;;;;1.07;0.90;;;;;;;1.55;100.00;101849.41;5072087;28;20547;-77
2021/12/20 11:09:45;;;;;;;1.70;1.23;;;;;;;1.83;100.00;101859.78;5071879;28;20444;-77
2021/12/20 11:12:12;;;;;;;1.10;1.00;;;;;;;1.98;100.00;101862.16;5072186;28;20420;-76
2021/12/20 11:14:44;;;;;;;8.83;1.50;;;;;;;2.13;100.00;101856.44;5071807;28;20220;-76
2021/12/20 11:17:12;;;;;;;1.83;1.73;;;;;;;2.21;100.00;101856.19;5072333;28;20419;-76
2021/12/20 11:19:39;;;;;;;2.10;1.30;;;;;;;2.33;99.54;101859.81;5071736;28;20232;-76
2021/12/20 11:22:05;;;;;;;1.87;1.60;;;;;;;2.42;99.21;101854.94;5072082;28;20618;-76
2021/12/20 11:24:38;;;;;;;2.23;1.10;;;;;;;2.46;98.42;101856.13;5071625;28;20177;-76
2021/12/20 11:27:07;;;;;;;1.53;1.00;;;;;;;2.52;97.89;101860.66;5071460;28;20236;-76
2021/12/20 11:29:35;;;;;;;2.10;1.50;;;;;;;2.53;96.71;101856.91;5071257;28;20527;-76
2021/12/20 11:32:02;;;;;;;2.27;1.00;;;;;;;2.62;96.59;101844.78;5071427;28;20182;-76
2021/12/20 11:34:27;;;;;;;4.77;1.57;;;;;;;2.67;95.73;101844.91;5071315;28;20662;-76
2021/12/20 11:36:53;;;;;;;6.00;1.63;;;;;;;2.74;95.16;101851.06;5071230;28;20181;-76
2021/12/20 11:39:19;;;;;;;3.80;1.33;;;;;;;2.72;93.97;101852.34;5070057;28;20190;-76
2021/12/20 11:41:45;;;;;;;2.23;1.23;;;;;;;2.76;93.55;101848.97;5070952;28;20475;-76